sensor_id;sensor_type;location;lat;lon;timestamp;temperature;humidity
19972;DHT22;10147;16.402;102.848;2024-01-06T00:01:47;20.30;99.90
19972;DHT22;10147;16.402;102.848;2024-01-06T00:04:18;20.20;99.90
19972;DHT22;10147;16.402;102.848;2024-01-06T00:06:49;20.10;99.90
19972;DHT22;10147;16.402;102.848;2024-01-06T00:09:19;20.40;99.90
19972;DHT22;10147;16.402;102.848;2024-01-06T00:11:50;20.50;99.90
19972;DHT22;10147;16.402;102.848;2024-01-06T00:14:20;20.50;99.90
19972;DHT22;10147;16.402;102.848;2024-01-06T00:16:50;20.50;99.90
19972;DHT22;10147;16.402;102.848;2024-01-06T00:19:20;20.60;99.90
19972;DHT22;10147;16.402;102.848;2024-01-06T00:21:51;20.80;99.90
19972;DHT22;10147;16.402;102.848;2024-01-06T00:24:21;20.70;99.90
19972;DHT22;10147;16.402;102.848;2024-01-06T00:26:51;20.70;99.90
19972;DHT22;10147;16.402;102.848;2024-01-06T00:29:21;21.10;99.90
19972;DHT22;10147;16.402;102.848;2024-01-06T00:31:51;21.10;99.90
19972;DHT22;10147;16.402;102.848;2024-01-06T00:34:21;21.30;99.90
19972;DHT22;10147;16.402;102.848;2024-01-06T00:36:51;21.50;99.90
19972;DHT22;10147;16.402;102.848;2024-01-06T00:39:21;21.70;99.90
19972;DHT22;10147;16.402;102.848;2024-01-06T00:41:51;21.90;99.90
19972;DHT22;10147;16.402;102.848;2024-01-06T00:44:21;21.70;99.90
19972;DHT22;10147;16.402;102.848;2024-01-06T00:46:52;21.70;99.90
19972;DHT22;10147;16.402;102.848;2024-01-06T00:49:22;21.80;99.90
19972;DHT22;10147;16.402;102.848;2024-01-06T00:51:52;22.00;99.90
19972;DHT22;10147;16.402;102.848;2024-01-06T00:54:22;22.00;99.90
19972;DHT22;10147;16.402;102.848;2024-01-06T00:56:52;22.10;99.90
19972;DHT22;10147;16.402;102.848;2024-01-06T00:59:25;22.20;99.90
19972;DHT22;10147;16.402;102.848;2024-01-06T01:01:55;22.40;99.90
19972;DHT22;10147;16.402;102.848;2024-01-06T01:04:26;22.40;99.90
19972;DHT22;10147;16.402;102.848;2024-01-06T01:06:57;22.30;99.90
19972;DHT22;10147;16.402;102.848;2024-01-06T01:09:28;22.60;99.90
19972;DHT22;10147;16.402;102.848;2024-01-06T01:11:58;22.70;99.90
19972;DHT22;10147;16.402;102.848;2024-01-06T01:14:28;22.30;99.90
19972;DHT22;10147;16.402;102.848;2024-01-06T01:16:58;22.40;99.90
19972;DHT22;10147;16.402;102.848;2024-01-06T01:19:28;22.60;99.90
19972;DHT22;10147;16.402;102.848;2024-01-06T01:21:58;22.60;99.90
19972;DHT22;10147;16.402;102.848;2024-01-06T01:24:28;22.50;99.90
19972;DHT22;10147;16.402;102.848;2024-01-06T01:26:58;22.70;99.90
19972;DHT22;10147;16.402;102.848;2024-01-06T01:29:28;23.10;99.90
19972;DHT22;10147;16.402;102.848;2024-01-06T01:31:58;23.00;99.90
19972;DHT22;10147;16.402;102.848;2024-01-06T01:34:28;22.90;99.90
19972;DHT22;10147;16.402;102.848;2024-01-06T01:37:00;22.90;99.90
19972;DHT22;10147;16.402;102.848;2024-01-06T01:39:29;22.90;99.90
19972;DHT22;10147;16.402;102.848;2024-01-06T01:42:00;23.30;99.90
19972;DHT22;10147;16.402;102.848;2024-01-06T01:44:29;23.60;99.90
19972;DHT22;10147;16.402;102.848;2024-01-06T01:46:59;23.50;99.90
19972;DHT22;10147;16.402;102.848;2024-01-06T01:49:29;23.40;99.90
19972;DHT22;10147;16.402;102.848;2024-01-06T01:52:00;23.50;99.90
19972;DHT22;10147;16.402;102.848;2024-01-06T01:54:30;23.80;99.90
19972;DHT22;10147;16.402;102.848;2024-01-06T01:57:00;24.00;99.90
19972;DHT22;10147;16.402;102.848;2024-01-06T01:59:31;24.20;99.90
19972;DHT22;10147;16.402;102.848;2024-01-06T02:02:02;23.90;99.90
19972;DHT22;10147;16.402;102.848;2024-01-06T02:04:34;24.10;99.90
19972;DHT22;10147;16.402;102.848;2024-01-06T02:07:04;24.20;99.90
19972;DHT22;10147;16.402;102.848;2024-01-06T02:09:36;24.40;99.90
19972;DHT22;10147;16.402;102.848;2024-01-06T02:12:06;24.30;99.90
19972;DHT22;10147;16.402;102.848;2024-01-06T02:14:36;24.40;99.90
19972;DHT22;10147;16.402;102.848;2024-01-06T02:17:06;24.60;99.90
19972;DHT22;10147;16.402;102.848;2024-01-06T02:19:36;24.60;99.90
19972;DHT22;10147;16.402;102.848;2024-01-06T02:22:06;24.80;99.90
19972;DHT22;10147;16.402;102.848;2024-01-06T02:24:36;25.10;99.90
19972;DHT22;10147;16.402;102.848;2024-01-06T02:27:06;24.90;99.90
19972;DHT22;10147;16.402;102.848;2024-01-06T02:29:36;25.00;99.90
19972;DHT22;10147;16.402;102.848;2024-01-06T02:32:06;25.10;99.90
19972;DHT22;10147;16.402;102.848;2024-01-06T02:34:36;25.10;99.90
19972;DHT22;10147;16.402;102.848;2024-01-06T02:37:08;25.10;99.90
19972;DHT22;10147;16.402;102.848;2024-01-06T02:39:38;25.10;99.90
19972;DHT22;10147;16.402;102.848;2024-01-06T02:42:08;25.10;99.90
19972;DHT22;10147;16.402;102.848;2024-01-06T02:44:38;25.40;99.90
19972;DHT22;10147;16.402;102.848;2024-01-06T02:47:08;25.50;99.90
19972;DHT22;10147;16.402;102.848;2024-01-06T02:49:38;25.60;99.90
19972;DHT22;10147;16.402;102.848;2024-01-06T02:52:09;25.70;99.90
19972;DHT22;10147;16.402;102.848;2024-01-06T02:54:38;25.90;99.90
19972;DHT22;10147;16.402;102.848;2024-01-06T02:57:08;25.90;99.90
19972;DHT22;10147;16.402;102.848;2024-01-06T02:59:38;25.70;99.90
19972;DHT22;10147;16.402;102.848;2024-01-06T03:02:09;26.10;99.90
19972;DHT22;10147;16.402;102.848;2024-01-06T03:04:40;26.20;99.90
19972;DHT22;10147;16.402;102.848;2024-01-06T03:07:11;26.20;99.90
19972;DHT22;10147;16.402;102.848;2024-01-06T03:09:41;26.40;99.90
19972;DHT22;10147;16.402;102.848;2024-01-06T03:12:12;26.60;99.90
19972;DHT22;10147;16.402;102.848;2024-01-06T03:14:41;26.80;99.90
19972;DHT22;10147;16.402;102.848;2024-01-06T03:17:11;26.80;99.90
19972;DHT22;10147;16.402;102.848;2024-01-06T03:19:41;26.70;99.90
19972;DHT22;10147;16.402;102.848;2024-01-06T03:22:12;26.70;99.90
19972;DHT22;10147;16.402;102.848;2024-01-06T03:24:42;26.60;99.90
19972;DHT22;10147;16.402;102.848;2024-01-06T03:27:12;26.80;99.90
19972;DHT22;10147;16.402;102.848;2024-01-06T03:29:42;27.00;99.90
19972;DHT22;10147;16.402;102.848;2024-01-06T03:32:12;27.00;99.90
19972;DHT22;10147;16.402;102.848;2024-01-06T03:34:42;27.10;99.90
19972;DHT22;10147;16.402;102.848;2024-01-06T03:37:12;27.00;99.90
19972;DHT22;10147;16.402;102.848;2024-01-06T03:39:42;27.00;99.90
19972;DHT22;10147;16.402;102.848;2024-01-06T03:42:12;27.00;99.90
19972;DHT22;10147;16.402;102.848;2024-01-06T03:44:42;27.40;99.90
19972;DHT22;10147;16.402;102.848;2024-01-06T03:47:12;27.40;99.90
19972;DHT22;10147;16.402;102.848;2024-01-06T03:49:42;27.50;99.90
19972;DHT22;10147;16.402;102.848;2024-01-06T03:52:12;27.70;99.90
19972;DHT22;10147;16.402;102.848;2024-01-06T03:54:43;27.50;99.90
19972;DHT22;10147;16.402;102.848;2024-01-06T03:57:13;27.50;99.90
19972;DHT22;10147;16.402;102.848;2024-01-06T03:59:43;27.70;99.90
19972;DHT22;10147;16.402;102.848;2024-01-06T04:02:13;28.10;99.90
19972;DHT22;10147;16.402;102.848;2024-01-06T04:04:44;27.90;99.90
19972;DHT22;10147;16.402;102.848;2024-01-06T04:07:14;28.10;99.90
19972;DHT22;10147;16.402;102.848;2024-01-06T04:09:46;28.20;99.90
19972;DHT22;10147;16.402;102.848;2024-01-06T04:12:17;28.30;99.90
19972;DHT22;10147;16.402;102.848;2024-01-06T04:14:47;28.40;99.90
19972;DHT22;10147;16.402;102.848;2024-01-06T04:17:17;28.40;99.90
19972;DHT22;10147;16.402;102.848;2024-01-06T04:19:47;27.80;99.90
19972;DHT22;10147;16.402;102.848;2024-01-06T04:22:17;28.00;99.90
19972;DHT22;10147;16.402;102.848;2024-01-06T04:24:47;28.20;99.90
19972;DHT22;10147;16.402;102.848;2024-01-06T04:27:17;28.60;99.90
19972;DHT22;10147;16.402;102.848;2024-01-06T04:29:48;28.70;99.90
19972;DHT22;10147;16.402;102.848;2024-01-06T04:32:17;29.00;99.90
19972;DHT22;10147;16.402;102.848;2024-01-06T04:34:48;28.80;99.90
19972;DHT22;10147;16.402;102.848;2024-01-06T04:37:18;29.00;99.90
19972;DHT22;10147;16.402;102.848;2024-01-06T04:39:49;29.10;99.90
19972;DHT22;10147;16.402;102.848;2024-01-06T04:42:19;29.10;99.90
19972;DHT22;10147;16.402;102.848;2024-01-06T04:44:51;29.10;99.90
19972;DHT22;10147;16.402;102.848;2024-01-06T04:47:21;29.30;99.90
19972;DHT22;10147;16.402;102.848;2024-01-06T04:49:51;29.50;99.90
19972;DHT22;10147;16.402;102.848;2024-01-06T04:52:21;29.40;99.90
19972;DHT22;10147;16.402;102.848;2024-01-06T04:54:52;29.50;99.90
19972;DHT22;10147;16.402;102.848;2024-01-06T04:57:22;29.20;99.90
19972;DHT22;10147;16.402;102.848;2024-01-06T04:59:52;29.20;99.90
19972;DHT22;10147;16.402;102.848;2024-01-06T05:02:22;29.50;99.90
19972;DHT22;10147;16.402;102.848;2024-01-06T05:04:53;29.60;99.90
19972;DHT22;10147;16.402;102.848;2024-01-06T05:07:23;29.80;99.90
19972;DHT22;10147;16.402;102.848;2024-01-06T05:09:54;29.90;99.90
19972;DHT22;10147;16.402;102.848;2024-01-06T05:12:24;30.10;99.90
19972;DHT22;10147;16.402;102.848;2024-01-06T05:14:54;30.20;99.90
19972;DHT22;10147;16.402;102.848;2024-01-06T05:17:24;30.10;99.90
19972;DHT22;10147;16.402;102.848;2024-01-06T05:19:54;30.30;99.90
19972;DHT22;10147;16.402;102.848;2024-01-06T05:22:25;30.40;99.90
19972;DHT22;10147;16.402;102.848;2024-01-06T05:24:55;30.50;99.90
19972;DHT22;10147;16.402;102.848;2024-01-06T05:27:25;30.50;99.90
19972;DHT22;10147;16.402;102.848;2024-01-06T05:29:55;30.50;99.90
19972;DHT22;10147;16.402;102.848;2024-01-06T05:32:25;30.60;99.90
19972;DHT22;10147;16.402;102.848;2024-01-06T05:34:55;30.60;99.90
19972;DHT22;10147;16.402;102.848;2024-01-06T05:37:26;30.70;99.90
19972;DHT22;10147;16.402;102.848;2024-01-06T05:39:55;30.70;99.90
19972;DHT22;10147;16.402;102.848;2024-01-06T05:42:28;30.80;99.90
19972;DHT22;10147;16.402;102.848;2024-01-06T05:44:58;30.80;99.90
19972;DHT22;10147;16.402;102.848;2024-01-06T05:47:28;31.00;99.90
19972;DHT22;10147;16.402;102.848;2024-01-06T05:49:58;31.20;99.90
19972;DHT22;10147;16.402;102.848;2024-01-06T05:52:28;31.20;99.90
19972;DHT22;10147;16.402;102.848;2024-01-06T05:54:58;31.40;99.90
19972;DHT22;10147;16.402;102.848;2024-01-06T05:57:28;31.40;99.90
19972;DHT22;10147;16.402;102.848;2024-01-06T05:59:59;31.20;99.90
19972;DHT22;10147;16.402;102.848;2024-01-06T06:02:39;31.20;99.90
19972;DHT22;10147;16.402;102.848;2024-01-06T06:05:09;31.50;99.90
19972;DHT22;10147;16.402;102.848;2024-01-06T06:07:40;31.60;99.90
19972;DHT22;10147;16.402;102.848;2024-01-06T06:10:12;31.70;99.90
19972;DHT22;10147;16.402;102.848;2024-01-06T06:12:42;32.00;99.90
19972;DHT22;10147;16.402;102.848;2024-01-06T06:15:12;32.20;99.90
19972;DHT22;10147;16.402;102.848;2024-01-06T06:17:42;32.20;99.90
19972;DHT22;10147;16.402;102.848;2024-01-06T06:20:12;31.90;99.90
19972;DHT22;10147;16.402;102.848;2024-01-06T06:22:44;32.00;99.90
19972;DHT22;10147;16.402;102.848;2024-01-06T06:25:14;32.00;99.90
19972;DHT22;10147;16.402;102.848;2024-01-06T06:27:44;32.10;99.90
19972;DHT22;10147;16.402;102.848;2024-01-06T06:30:14;32.10;99.90
19972;DHT22;10147;16.402;102.848;2024-01-06T06:32:48;32.30;99.90
19972;DHT22;10147;16.402;102.848;2024-01-06T06:35:18;32.20;99.90
19972;DHT22;10147;16.402;102.848;2024-01-06T06:37:48;32.30;99.90
19972;DHT22;10147;16.402;102.848;2024-01-06T06:40:19;32.30;99.90
19972;DHT22;10147;16.402;102.848;2024-01-06T06:42:49;32.30;99.90
19972;DHT22;10147;16.402;102.848;2024-01-06T06:45:19;32.10;99.90
19972;DHT22;10147;16.402;102.848;2024-01-06T06:47:52;32.50;99.90
19972;DHT22;10147;16.402;102.848;2024-01-06T06:50:22;32.30;99.90
19972;DHT22;10147;16.402;102.848;2024-01-06T06:52:52;32.20;99.90
19972;DHT22;10147;16.402;102.848;2024-01-06T06:55:22;32.40;99.90
19972;DHT22;10147;16.402;102.848;2024-01-06T06:57:52;32.60;99.90
19972;DHT22;10147;16.402;102.848;2024-01-06T07:00:22;32.50;99.90
19972;DHT22;10147;16.402;102.848;2024-01-06T07:02:52;32.40;99.90
19972;DHT22;10147;16.402;102.848;2024-01-06T07:05:24;32.60;99.90
19972;DHT22;10147;16.402;102.848;2024-01-06T07:07:54;32.70;99.90
19972;DHT22;10147;16.402;102.848;2024-01-06T07:10:24;32.80;99.90
19972;DHT22;10147;16.402;102.848;2024-01-06T07:12:55;32.60;99.90
19972;DHT22;10147;16.402;102.848;2024-01-06T07:15:25;32.70;99.90
19972;DHT22;10147;16.402;102.848;2024-01-06T07:17:55;32.80;99.90
19972;DHT22;10147;16.402;102.848;2024-01-06T07:20:25;33.00;99.90
19972;DHT22;10147;16.402;102.848;2024-01-06T07:22:56;33.00;99.90
19972;DHT22;10147;16.402;102.848;2024-01-06T07:25:26;32.70;99.90
19972;DHT22;10147;16.402;102.848;2024-01-06T07:27:56;32.80;99.90
19972;DHT22;10147;16.402;102.848;2024-01-06T07:30:26;32.70;99.90
19972;DHT22;10147;16.402;102.848;2024-01-06T07:32:57;32.80;99.90
19972;DHT22;10147;16.402;102.848;2024-01-06T07:35:28;32.80;99.90
19972;DHT22;10147;16.402;102.848;2024-01-06T07:37:58;32.50;99.90
19972;DHT22;10147;16.402;102.848;2024-01-06T07:40:29;32.70;99.90
19972;DHT22;10147;16.402;102.848;2024-01-06T07:42:59;32.80;99.90
19972;DHT22;10147;16.402;102.848;2024-01-06T07:45:29;32.80;99.90
19972;DHT22;10147;16.402;102.848;2024-01-06T07:48:00;32.90;99.90
19972;DHT22;10147;16.402;102.848;2024-01-06T07:50:30;33.20;99.90
19972;DHT22;10147;16.402;102.848;2024-01-06T07:53:00;33.10;99.90
19972;DHT22;10147;16.402;102.848;2024-01-06T07:55:31;33.00;99.90
19972;DHT22;10147;16.402;102.848;2024-01-06T07:58:01;32.80;99.90
19972;DHT22;10147;16.402;102.848;2024-01-06T08:00:31;32.70;99.90
19972;DHT22;10147;16.402;102.848;2024-01-06T08:03:01;32.90;99.90
19972;DHT22;10147;16.402;102.848;2024-01-06T08:05:35;32.50;99.90
19972;DHT22;10147;16.402;102.848;2024-01-06T08:08:05;32.70;99.90
19972;DHT22;10147;16.402;102.848;2024-01-06T08:10:37;32.50;99.90
19972;DHT22;10147;16.402;102.848;2024-01-06T08:13:07;32.60;99.90
19972;DHT22;10147;16.402;102.848;2024-01-06T08:15:37;32.90;99.90
19972;DHT22;10147;16.402;102.848;2024-01-06T08:18:07;33.00;99.90
19972;DHT22;10147;16.402;102.848;2024-01-06T08:20:37;33.00;99.90
19972;DHT22;10147;16.402;102.848;2024-01-06T08:23:07;33.00;99.90
19972;DHT22;10147;16.402;102.848;2024-01-06T08:25:37;33.10;99.90
19972;DHT22;10147;16.402;102.848;2024-01-06T08:28:07;33.00;99.90
19972;DHT22;10147;16.402;102.848;2024-01-06T08:30:37;32.90;99.90
19972;DHT22;10147;16.402;102.848;2024-01-06T08:33:07;32.80;99.90
19972;DHT22;10147;16.402;102.848;2024-01-06T08:35:37;32.90;99.90
19972;DHT22;10147;16.402;102.848;2024-01-06T08:38:10;32.90;99.90
19972;DHT22;10147;16.402;102.848;2024-01-06T08:40:40;33.00;99.90
19972;DHT22;10147;16.402;102.848;2024-01-06T08:43:11;33.00;99.90
19972;DHT22;10147;16.402;102.848;2024-01-06T08:45:41;32.80;99.90
19972;DHT22;10147;16.402;102.848;2024-01-06T08:48:11;32.70;99.90
19972;DHT22;10147;16.402;102.848;2024-01-06T08:50:43;32.70;99.90
19972;DHT22;10147;16.402;102.848;2024-01-06T08:53:15;32.70;99.90
19972;DHT22;10147;16.402;102.848;2024-01-06T08:55:45;32.70;99.90
19972;DHT22;10147;16.402;102.848;2024-01-06T08:58:15;32.70;99.90
19972;DHT22;10147;16.402;102.848;2024-01-06T09:00:47;32.60;99.90
19972;DHT22;10147;16.402;102.848;2024-01-06T09:03:17;32.70;99.90
19972;DHT22;10147;16.402;102.848;2024-01-06T09:05:49;32.60;99.90
19972;DHT22;10147;16.402;102.848;2024-01-06T09:08:19;32.70;99.90
19972;DHT22;10147;16.402;102.848;2024-01-06T09:10:50;32.50;99.90
19972;DHT22;10147;16.402;102.848;2024-01-06T09:13:27;32.70;99.90
19972;DHT22;10147;16.402;102.848;2024-01-06T09:15:58;32.60;99.90
19972;DHT22;10147;16.402;102.848;2024-01-06T09:18:30;32.50;99.90
19972;DHT22;10147;16.402;102.848;2024-01-06T09:21:01;32.40;99.90
19972;DHT22;10147;16.402;102.848;2024-01-06T09:23:32;32.10;99.90
19972;DHT22;10147;16.402;102.848;2024-01-06T09:26:02;31.90;99.90
19972;DHT22;10147;16.402;102.848;2024-01-06T09:28:32;32.00;99.90
19972;DHT22;10147;16.402;102.848;2024-01-06T09:31:02;32.20;99.90
19972;DHT22;10147;16.402;102.848;2024-01-06T09:33:34;32.20;99.90
19972;DHT22;10147;16.402;102.848;2024-01-06T09:36:04;32.30;99.90
19972;DHT22;10147;16.402;102.848;2024-01-06T09:38:35;32.20;99.90
19972;DHT22;10147;16.402;102.848;2024-01-06T09:41:04;31.90;99.90
19972;DHT22;10147;16.402;102.848;2024-01-06T09:43:35;32.00;99.90
19972;DHT22;10147;16.402;102.848;2024-01-06T09:46:21;32.00;99.90
19972;DHT22;10147;16.402;102.848;2024-01-06T09:48:55;32.00;99.90
19972;DHT22;10147;16.402;102.848;2024-01-06T09:51:25;31.90;99.90
19972;DHT22;10147;16.402;102.848;2024-01-06T09:54:01;31.60;99.90
19972;DHT22;10147;16.402;102.848;2024-01-06T09:56:34;31.80;99.90
19972;DHT22;10147;16.402;102.848;2024-01-06T09:59:04;31.80;99.90
19972;DHT22;10147;16.402;102.848;2024-01-06T10:01:35;31.80;99.90
19972;DHT22;10147;16.402;102.848;2024-01-06T10:04:05;31.80;99.90
19972;DHT22;10147;16.402;102.848;2024-01-06T10:06:37;31.70;99.90
19972;DHT22;10147;16.402;102.848;2024-01-06T10:09:08;31.50;99.90
19972;DHT22;10147;16.402;102.848;2024-01-06T10:11:40;31.40;99.90
19972;DHT22;10147;16.402;102.848;2024-01-06T10:14:12;31.40;99.90
19972;DHT22;10147;16.402;102.848;2024-01-06T10:16:42;31.30;99.90
19972;DHT22;10147;16.402;102.848;2024-01-06T10:19:12;31.30;99.90
19972;DHT22;10147;16.402;102.848;2024-01-06T10:21:43;31.20;99.90
19972;DHT22;10147;16.402;102.848;2024-01-06T10:24:13;31.20;99.90
19972;DHT22;10147;16.402;102.848;2024-01-06T10:26:44;31.10;99.90
19972;DHT22;10147;16.402;102.848;2024-01-06T10:29:14;31.00;99.90
19972;DHT22;10147;16.402;102.848;2024-01-06T10:31:44;31.00;99.90
19972;DHT22;10147;16.402;102.848;2024-01-06T10:34:20;30.90;99.90
19972;DHT22;10147;16.402;102.848;2024-01-06T10:36:50;30.80;99.90
19972;DHT22;10147;16.402;102.848;2024-01-06T10:39:24;30.70;99.90
19972;DHT22;10147;16.402;102.848;2024-01-06T10:41:55;30.60;99.90
19972;DHT22;10147;16.402;102.848;2024-01-06T10:44:26;30.50;99.90
19972;DHT22;10147;16.402;102.848;2024-01-06T10:46:59;30.60;99.90
19972;DHT22;10147;16.402;102.848;2024-01-06T10:49:31;30.50;99.90
19972;DHT22;10147;16.402;102.848;2024-01-06T10:52:01;30.50;99.90
19972;DHT22;10147;16.402;102.848;2024-01-06T10:54:34;30.40;99.90
19972;DHT22;10147;16.402;102.848;2024-01-06T10:57:06;30.40;99.90
19972;DHT22;10147;16.402;102.848;2024-01-06T10:59:37;30.40;99.90
19972;DHT22;10147;16.402;102.848;2024-01-06T11:02:10;30.20;99.90
19972;DHT22;10147;16.402;102.848;2024-01-06T11:04:46;30.00;99.90
19972;DHT22;10147;16.402;102.848;2024-01-06T11:07:23;30.00;99.90
19972;DHT22;10147;16.402;102.848;2024-01-06T11:10:15;29.80;99.90
19972;DHT22;10147;16.402;102.848;2024-01-06T11:13:09;29.70;99.90
19972;DHT22;10147;16.402;102.848;2024-01-06T11:15:50;29.70;99.90
19972;DHT22;10147;16.402;102.848;2024-01-06T11:18:38;29.70;99.90
19972;DHT22;10147;16.402;102.848;2024-01-06T11:21:22;29.70;99.90
19972;DHT22;10147;16.402;102.848;2024-01-06T11:24:15;29.60;99.90
19972;DHT22;10147;16.402;102.848;2024-01-06T11:26:56;29.50;99.90
19972;DHT22;10147;16.402;102.848;2024-01-06T11:29:27;29.50;99.90
19972;DHT22;10147;16.402;102.848;2024-01-06T11:32:26;29.40;99.90
19972;DHT22;10147;16.402;102.848;2024-01-06T11:35:06;29.20;99.90
19972;DHT22;10147;16.402;102.848;2024-01-06T11:37:58;28.40;99.90
19972;DHT22;10147;16.402;102.848;2024-01-06T11:40:35;28.10;99.90
19972;DHT22;10147;16.402;102.848;2024-01-06T11:43:08;28.00;99.90
19972;DHT22;10147;16.402;102.848;2024-01-06T11:45:41;28.00;99.90
19972;DHT22;10147;16.402;102.848;2024-01-06T11:48:12;28.20;99.90
19972;DHT22;10147;16.402;102.848;2024-01-06T11:50:43;28.10;99.90
19972;DHT22;10147;16.402;102.848;2024-01-06T11:53:14;27.90;99.90
19972;DHT22;10147;16.402;102.848;2024-01-06T11:55:44;27.70;99.90
19972;DHT22;10147;16.402;102.848;2024-01-06T11:58:17;27.70;99.90
19972;DHT22;10147;16.402;102.848;2024-01-06T12:00:55;28.00;99.90
19972;DHT22;10147;16.402;102.848;2024-01-06T12:03:27;28.10;99.90
19972;DHT22;10147;16.402;102.848;2024-01-06T12:06:01;28.30;99.90
19972;DHT22;10147;16.402;102.848;2024-01-06T12:08:34;28.40;99.90
19972;DHT22;10147;16.402;102.848;2024-01-06T12:11:05;28.50;99.90
19972;DHT22;10147;16.402;102.848;2024-01-06T12:13:37;28.50;99.90
19972;DHT22;10147;16.402;102.848;2024-01-06T12:16:07;28.50;99.90
19972;DHT22;10147;16.402;102.848;2024-01-06T12:18:39;28.10;99.90
19972;DHT22;10147;16.402;102.848;2024-01-06T12:21:09;27.70;99.90
19972;DHT22;10147;16.402;102.848;2024-01-06T12:23:40;27.50;99.90
19972;DHT22;10147;16.402;102.848;2024-01-06T12:26:10;27.30;99.90
19972;DHT22;10147;16.402;102.848;2024-01-06T12:28:40;27.20;99.90
19972;DHT22;10147;16.402;102.848;2024-01-06T12:31:10;27.40;99.90
19972;DHT22;10147;16.402;102.848;2024-01-06T12:33:42;27.30;99.90
19972;DHT22;10147;16.402;102.848;2024-01-06T12:36:12;27.30;99.90
19972;DHT22;10147;16.402;102.848;2024-01-06T12:38:53;27.50;99.90
19972;DHT22;10147;16.402;102.848;2024-01-06T12:41:25;27.70;99.90
19972;DHT22;10147;16.402;102.848;2024-01-06T12:43:57;27.40;99.90
19972;DHT22;10147;16.402;102.848;2024-01-06T12:46:28;27.60;99.90
19972;DHT22;10147;16.402;102.848;2024-01-06T12:48:58;27.70;99.90
19972;DHT22;10147;16.402;102.848;2024-01-06T12:51:28;27.80;99.90
19972;DHT22;10147;16.402;102.848;2024-01-06T12:53:59;27.80;99.90
19972;DHT22;10147;16.402;102.848;2024-01-06T12:56:29;27.80;99.90
19972;DHT22;10147;16.402;102.848;2024-01-06T12:58:59;27.70;99.90
19972;DHT22;10147;16.402;102.848;2024-01-06T13:01:30;27.70;99.90
19972;DHT22;10147;16.402;102.848;2024-01-06T13:04:00;27.70;99.90
19972;DHT22;10147;16.402;102.848;2024-01-06T13:06:30;27.60;99.90
19972;DHT22;10147;16.402;102.848;2024-01-06T13:09:03;27.60;99.90
19972;DHT22;10147;16.402;102.848;2024-01-06T13:11:36;27.60;99.90
19972;DHT22;10147;16.402;102.848;2024-01-06T13:14:08;27.60;99.90
19972;DHT22;10147;16.402;102.848;2024-01-06T13:16:38;27.60;99.90
19972;DHT22;10147;16.402;102.848;2024-01-06T13:19:08;27.00;99.90
19972;DHT22;10147;16.402;102.848;2024-01-06T13:21:38;26.40;99.90
19972;DHT22;10147;16.402;102.848;2024-01-06T13:24:08;26.30;99.90
19972;DHT22;10147;16.402;102.848;2024-01-06T13:26:39;26.10;99.90
19972;DHT22;10147;16.402;102.848;2024-01-06T13:29:09;26.10;99.90
19972;DHT22;10147;16.402;102.848;2024-01-06T13:31:40;26.60;99.90
19972;DHT22;10147;16.402;102.848;2024-01-06T13:34:10;26.60;99.90
19972;DHT22;10147;16.402;102.848;2024-01-06T13:36:41;26.30;99.90
19972;DHT22;10147;16.402;102.848;2024-01-06T13:39:11;26.00;99.90
19972;DHT22;10147;16.402;102.848;2024-01-06T13:41:50;25.90;99.90
19972;DHT22;10147;16.402;102.848;2024-01-06T13:44:20;26.10;99.90
19972;DHT22;10147;16.402;102.848;2024-01-06T13:46:52;26.60;99.90
19972;DHT22;10147;16.402;102.848;2024-01-06T13:49:24;26.80;99.90
19972;DHT22;10147;16.402;102.848;2024-01-06T13:51:54;26.90;99.90
19972;DHT22;10147;16.402;102.848;2024-01-06T13:54:25;26.90;99.90
19972;DHT22;10147;16.402;102.848;2024-01-06T13:56:55;26.80;99.90
19972;DHT22;10147;16.402;102.848;2024-01-06T13:59:25;26.90;99.90
19972;DHT22;10147;16.402;102.848;2024-01-06T14:01:55;26.80;99.90
19972;DHT22;10147;16.402;102.848;2024-01-06T14:04:25;26.80;99.90
19972;DHT22;10147;16.402;102.848;2024-01-06T14:06:55;26.80;99.90
19972;DHT22;10147;16.402;102.848;2024-01-06T14:09:34;26.70;99.90
19972;DHT22;10147;16.402;102.848;2024-01-06T14:12:04;26.70;99.90
19972;DHT22;10147;16.402;102.848;2024-01-06T14:14:36;26.70;99.90
19972;DHT22;10147;16.402;102.848;2024-01-06T14:17:06;26.60;99.90
19972;DHT22;10147;16.402;102.848;2024-01-06T14:19:36;26.50;99.90
19972;DHT22;10147;16.402;102.848;2024-01-06T14:22:06;26.40;99.90
19972;DHT22;10147;16.402;102.848;2024-01-06T14:24:39;26.50;99.90
19972;DHT22;10147;16.402;102.848;2024-01-06T14:27:09;26.40;99.90
19972;DHT22;10147;16.402;102.848;2024-01-06T14:29:39;26.20;99.90
19972;DHT22;10147;16.402;102.848;2024-01-06T14:32:09;26.10;99.90
19972;DHT22;10147;16.402;102.848;2024-01-06T14:34:39;26.00;99.90
19972;DHT22;10147;16.402;102.848;2024-01-06T14:37:09;26.10;99.90
19972;DHT22;10147;16.402;102.848;2024-01-06T14:39:39;26.10;99.90
19972;DHT22;10147;16.402;102.848;2024-01-06T14:42:10;25.80;99.90
19972;DHT22;10147;16.402;102.848;2024-01-06T14:44:39;25.80;99.90
19972;DHT22;10147;16.402;102.848;2024-01-06T14:47:13;25.70;99.90
19972;DHT22;10147;16.402;102.848;2024-01-06T14:49:43;25.70;99.90
19972;DHT22;10147;16.402;102.848;2024-01-06T14:52:14;25.90;99.90
19972;DHT22;10147;16.402;102.848;2024-01-06T14:54:43;26.00;99.90
19972;DHT22;10147;16.402;102.848;2024-01-06T14:57:13;25.80;99.90
19972;DHT22;10147;16.402;102.848;2024-01-06T14:59:45;25.70;99.90
19972;DHT22;10147;16.402;102.848;2024-01-06T15:02:14;25.80;99.90
19972;DHT22;10147;16.402;102.848;2024-01-06T15:04:46;26.00;99.90
19972;DHT22;10147;16.402;102.848;2024-01-06T15:07:16;26.00;99.90
19972;DHT22;10147;16.402;102.848;2024-01-06T15:09:47;25.90;99.90
19972;DHT22;10147;16.402;102.848;2024-01-06T15:12:17;25.90;99.90
19972;DHT22;10147;16.402;102.848;2024-01-06T15:14:47;26.00;99.90
19972;DHT22;10147;16.402;102.848;2024-01-06T15:17:17;26.00;99.90
19972;DHT22;10147;16.402;102.848;2024-01-06T15:19:47;25.80;99.90
19972;DHT22;10147;16.402;102.848;2024-01-06T15:22:19;26.00;99.90
19972;DHT22;10147;16.402;102.848;2024-01-06T15:24:49;26.00;99.90
19972;DHT22;10147;16.402;102.848;2024-01-06T15:27:25;26.00;99.90